Cheney, KS

7:33 AM CDT on May 25, 2015 (GMT -0500)
McConnell Air Force Base | | Change Station
CLOSE
Current Station
Airport
Location: McConnell AFB,
Elevation: 1371 ft
Nearby Weather Stations

Elev 1371 ft 37.62 °N, 97.27 °W | Updated 19 minutes ago

Overcast
Overcast
59 °F
Feels Like 59 °F
N
13
Wind Variable Wind from ESE

Today
High -- | Low -- °F
--% Chance of Precip.
Yesterday
High -- | Low -- °F
Precip. -- in
6:14 AM 8:41 PM
Waxing Crescent, 48% visible
Pressure 29.86 in
Visibility 10.0 miles
Clouds Scattered Clouds 1500 ft
Dew Point 57 °F
Humidity 94%
Rainfall 0.04 in
Snow Depth Not available.
UV 0 out of 12
Pollen 9.50 out of 12
Air Quality Not available.
Flu Activity No Activity
SPECI KIAB 251214Z AUTO 11011KT 10SM SCT015 15/14 A2986 RMK AO2 RAB1157E1159

More Conditions Fewer Conditions

Pressure 29.86 in
Visibility 10.0 miles
Clouds Scattered Clouds 1500 ft
Dew Point 57 °F
Humidity 94%
Rainfall 0.04 in
Snow Depth Not available.
UV 0 out of 12
Pollen 9.50 out of 12
Air Quality Not available.
Flu Activity No Activity
SPECI KIAB 251214Z AUTO 11011KT 10SM SCT015 15/14 A2986 RMK AO2 RAB1157E1159

More Conditions Fewer Conditions

10-Day Weather Forecast

Almanac

Astronomy

May. 25, 2015 Rise Set
Actual Time
Civil Twilight
Nautical Twilight
Astronomical Twilight
Moon
Length of Visible Light
Length of Day
Tomorrow will be .
, % of the Moon is Illuminated

Today's Extremes

State Highs State Lows

Community

WunderPhotos

Upload Photos

1,823,986 photos uploaded!

WunderBlogs® & News

Nearby

Air Quality

  Air Quality AQ Index Pollutant
Not available.

Snow Depth

Station Depth Elevation

Earthquake Activity

City Distance Mag. Time & Date
Minimum magnitude displayed is 2.5.

Coastal Water Temperatures

Place Temperature

Stations

Nearby Weather Stations

Station Location Temp. Windchill Dew Point Humidity Wind Precip. Elev Updated Type